Time;durP1;ratioP1;P1;durP2;ratioP2;P2;SDS_P1;SDS_P2;PMS_P1;PMS_P2;Temp;Humidity;BMP_temperature;BMP_pressure;BME280_temperature;BME280_humidity;BME280_pressure;Samples;Min_cycle;Max_cycle;Signal;HPM_P1;HPM_P2
2022/10/09 00:00:18;;;;;;;8.80;4.60;;;9.70;99.90;;;;;;5048159;28;20055;-84
2022/10/09 00:02:44;;;;;;;8.18;3.28;;;9.60;99.90;;;;;;5046088;28;20041;-82
2022/10/09 00:05:09;;;;;;;16.20;5.05;;;9.60;99.90;;;;;;5046888;28;20057;-84
2022/10/09 00:07:35;;;;;;;15.98;5.70;;;9.50;99.90;;;;;;5048792;28;20082;-80
2022/10/09 00:10:00;;;;;;;9.20;4.00;;;9.50;99.90;;;;;;5048301;28;20049;-82
2022/10/09 00:12:26;;;;;;;10.18;4.95;;;9.40;99.90;;;;;;5048883;28;20380;-83
2022/10/09 00:14:52;;;;;;;18.98;6.07;;;9.20;99.90;;;;;;5028682;28;20480;-81
2022/10/09 00:17:17;;;;;;;8.35;6.03;;;9.20;99.90;;;;;;5051730;28;20056;-81
2022/10/09 00:19:43;;;;;;;13.77;8.30;;;9.40;99.90;;;;;;5050431;28;20131;-84
2022/10/09 00:22:08;;;;;;;8.93;5.97;;;9.30;99.90;;;;;;5029359;28;20087;-84
2022/10/09 00:24:34;;;;;;;17.17;8.13;;;9.30;99.90;;;;;;5045603;28;20437;-80
2022/10/09 00:27:00;;;;;;;19.92;9.75;;;9.30;99.90;;;;;;5036163;28;20111;-86
2022/10/09 00:29:25;;;;;;;17.15;8.10;;;9.30;99.90;;;;;;5042034;28;20033;-84
2022/10/09 00:31:51;;;;;;;14.20;9.18;;;9.30;99.90;;;;;;5038160;28;20400;-84
2022/10/09 00:34:16;;;;;;;23.92;8.38;;;9.20;99.90;;;;;;5053980;28;20439;-83
2022/10/09 00:36:42;;;;;;;13.73;8.80;;;9.00;99.90;;;;;;5048626;28;20506;-83
2022/10/09 00:39:08;;;;;;;25.20;11.23;;;9.00;99.90;;;;;;5039826;28;20045;-85
2022/10/09 00:41:33;;;;;;;26.48;8.70;;;8.90;99.90;;;;;;5045696;28;20086;-82
2022/10/09 00:44:02;;;;;;;34.08;11.77;;;9.00;99.90;;;;;;5042544;28;20045;-83
2022/10/09 00:46:27;;;;;;;11.50;9.13;;;8.90;99.90;;;;;;5025798;28;20073;-82
2022/10/09 00:49:06;;;;;;;16.90;11.07;;;8.90;99.90;;;;;;5016575;28;20170;-81
2022/10/09 00:51:33;;;;;;;17.88;10.45;;;8.90;99.90;;;;;;5030461;28;20036;-85
2022/10/09 00:54:00;;;;;;;21.05;11.60;;;9.10;99.90;;;;;;5046540;28;20033;-84
2022/10/09 00:56:26;;;;;;;19.30;12.00;;;9.00;99.90;;;;;;5047083;28;20403;-83
2022/10/09 00:58:55;;;;;;;21.77;13.45;;;8.90;99.90;;;;;;5046022;28;20499;-83
2022/10/09 01:01:20;;;;;;;21.60;12.23;;;8.60;99.90;;;;;;5047241;28;20037;-83
2022/10/09 01:03:46;;;;;;;18.20;12.00;;;8.70;99.90;;;;;;5045550;28;20052;-83
2022/10/09 01:06:21;;;;;;;20.15;11.75;;;8.70;99.90;;;;;;5045847;28;20064;-83
2022/10/09 01:12:03;;;;;;;19.67;10.77;;;8.80;99.90;;;;;;5041937;22;20427;-83
2022/10/09 01:14:38;;;;;;;11.35;9.35;;;8.80;99.90;;;;;;5045740;28;20415;-83
2022/10/09 01:17:35;;;;;;;20.20;10.85;;;8.60;99.90;;;;;;5056064;28;20032;-84
2022/10/09 01:20:29;;;;;;;18.02;10.55;;;8.60;99.90;;;;;;5016472;28;20087;-83
2022/10/09 01:23:10;;;;;;;30.10;8.90;;;8.80;99.90;;;;;;5060825;28;20041;-85
2022/10/09 01:25:52;;;;;;;;;;;8.70;99.90;;;;;;5040423;28;20050;-85
2022/10/09 01:28:22;;;;;;;21.55;8.32;;;8.70;99.90;;;;;;5054751;28;19971;-85
2022/10/09 01:30:48;;;;;;;15.50;9.07;;;8.70;99.90;;;;;;5054944;28;20683;-85
2022/10/09 01:33:15;;;;;;;14.13;7.78;;;8.60;99.90;;;;;;5054795;28;20035;-81
2022/10/09 01:35:43;;;;;;;7.50;6.70;;;8.60;99.90;;;;;;5054411;28;20045;-82
2022/10/09 01:38:10;;;;;;;11.35;6.72;;;8.40;99.90;;;;;;5054254;28;20048;-82
2022/10/09 01:40:36;;;;;;;12.05;5.60;;;8.60;99.90;;;;;;5044914;28;20049;-83
2022/10/09 01:43:02;;;;;;;15.82;6.45;;;8.30;99.90;;;;;;5040711;28;20048;-82
2022/10/09 01:45:43;;;;;;;10.30;5.93;;;8.50;99.90;;;;;;5045337;28;20045;-82
2022/10/09 01:48:14;;;;;;;13.57;6.15;;;8.30;99.90;;;;;;5046554;28;20091;-85
2022/10/09 01:50:44;;;;;;;12.05;6.65;;;8.20;99.90;;;;;;5039186;28;20120;-86
2022/10/09 01:53:14;;;;;;;8.93;5.88;;;8.40;99.90;;;;;;5046462;28;20029;-87
2022/10/09 01:56:01;;;;;;;8.23;5.32;;;8.30;99.90;;;;;;5051282;28;20049;-86
2022/10/09 01:58:32;;;;;;;15.07;5.43;;;8.40;99.90;;;;;;5052753;28;20044;-84
2022/10/09 02:01:01;;;;;;;10.32;4.43;;;8.20;99.90;;;;;;5034481;28;20082;-84
2022/10/09 02:03:29;;;;;;;10.57;4.10;;;8.20;99.90;;;;;;5053084;28;20087;-85
2022/10/09 02:05:56;;;;;;;19.88;6.15;;;8.00;99.90;;;;;;5006488;28;20053;-84
2022/10/09 02:08:24;;;;;;;11.32;4.65;;;8.20;99.90;;;;;;5043442;28;20033;-83
2022/10/09 02:10:55;;;;;;;5.95;3.33;;;8.00;99.90;;;;;;5039696;28;20132;-84
2022/10/09 02:13:22;;;;;;;9.85;3.63;;;8.00;99.90;;;;;;5047532;28;20048;-84
2022/10/09 02:15:52;;;;;;;6.20;3.72;;;7.90;99.90;;;;;;5048983;28;20538;-83
2022/10/09 02:18:41;;;;;;;14.30;4.38;;;8.10;99.90;;;;;;5034209;28;20049;-83
2022/10/09 02:21:15;;;;;;;6.47;3.35;;;8.00;99.90;;;;;;5049675;28;20052;-84
2022/10/09 02:23:43;;;;;;;11.43;3.47;;;8.00;99.90;;;;;;5051587;28;20037;-83
2022/10/09 02:26:10;;;;;;;9.73;4.10;;;8.20;99.90;;;;;;5052350;28;20041;-86
2022/10/09 02:28:36;;;;;;;6.53;3.72;;;8.10;99.90;;;;;;5041810;28;20510;-83
2022/10/09 02:31:10;;;;;;;6.43;4.20;;;7.80;99.90;;;;;;5046569;28;20045;-85
2022/10/09 02:33:36;;;;;;;10.40;4.10;;;8.00;99.90;;;;;;5051113;28;20692;-84
2022/10/09 02:36:01;;;;;;;6.47;4.20;;;8.00;99.90;;;;;;5037231;28;20072;-85
2022/10/09 02:38:27;;;;;;;10.95;4.13;;;8.00;99.90;;;;;;5041247;28;20391;-85
2022/10/09 02:40:57;;;;;;;10.07;3.75;;;7.70;99.90;;;;;;5050966;28;20537;-82
2022/10/09 02:43:23;;;;;;;6.00;3.92;;;7.80;99.90;;;;;;5050862;28;20406;-84
2022/10/09 02:45:48;;;;;;;6.32;3.97;;;7.80;99.90;;;;;;5048114;28;20038;-83
2022/10/09 02:48:14;;;;;;;7.22;4.30;;;8.10;99.90;;;;;;5052698;28;20102;-83
2022/10/09 02:50:40;;;;;;;19.10;5.22;;;7.80;99.90;;;;;;5050224;28;20041;-81
2022/10/09 02:53:05;;;;;;;12.43;4.60;;;7.80;99.90;;;;;;5051095;28;20468;-84
2022/10/09 02:55:31;;;;;;;13.05;5.70;;;8.00;99.90;;;;;;5031526;28;20099;-84
2022/10/09 02:57:56;;;;;;;10.32;4.25;;;7.70;99.90;;;;;;5036489;28;20090;-78
2022/10/09 03:00:22;;;;;;;11.57;4.70;;;7.70;99.90;;;;;;5051299;28;20068;-86
2022/10/09 03:02:48;;;;;;;5.57;4.43;;;7.80;99.90;;;;;;5030776;28;20041;-85
2022/10/09 03:05:14;;;;;;;10.68;5.07;;;7.80;99.90;;;;;;5032077;28;20499;-82
2022/10/09 03:07:39;;;;;;;11.90;4.60;;;7.80;99.90;;;;;;5051754;28;20080;-83
2022/10/09 03:10:05;;;;;;;7.28;4.03;;;7.60;99.90;;;;;;5050492;28;20170;-84
2022/10/09 03:12:31;;;;;;;10.68;4.88;;;7.90;99.90;;;;;;5029900;28;20041;-83
2022/10/09 03:14:56;;;;;;;13.30;4.78;;;7.80;99.90;;;;;;5038811;28;20119;-84
2022/10/09 03:17:22;;;;;;;9.57;5.78;;;7.70;99.90;;;;;;5027610;28;20485;-84
2022/10/09 03:19:48;;;;;;;10.90;5.07;;;7.60;99.90;;;;;;5031890;28;20041;-83
2022/10/09 03:22:13;;;;;;;14.27;5.15;;;7.60;99.90;;;;;;5049104;28;20060;-84
2022/10/09 03:24:39;;;;;;;9.43;5.72;;;7.50;99.90;;;;;;5049819;28;20382;-85
2022/10/09 03:27:05;;;;;;;8.77;5.35;;;7.60;99.90;;;;;;5042948;28;20119;-84
2022/10/09 03:29:30;;;;;;;11.20;4.68;;;7.80;99.90;;;;;;5050113;28;20079;-84
2022/10/09 03:31:56;;;;;;;10.65;6.22;;;7.60;99.90;;;;;;5032369;28;20112;-84
2022/10/09 03:34:21;;;;;;;12.75;6.35;;;7.80;99.90;;;;;;5047779;28;20048;-85
2022/10/09 03:36:47;;;;;;;14.95;6.40;;;7.40;99.90;;;;;;5036478;28;20037;-83
2022/10/09 03:39:13;;;;;;;11.25;4.85;;;7.70;99.90;;;;;;5048464;28;20152;-85
2022/10/09 03:41:38;;;;;;;12.43;5.90;;;7.80;99.90;;;;;;5031993;28;20045;-85
2022/10/09 03:44:04;;;;;;;21.65;7.80;;;7.50;99.90;;;;;;5041106;28;20037;-82
2022/10/09 03:46:30;;;;;;;8.90;6.10;;;7.80;99.90;;;;;;5051623;28;20052;-85
2022/10/09 03:48:55;;;;;;;19.52;7.03;;;7.70;99.90;;;;;;5035238;28;20458;-82
2022/10/09 03:51:21;;;;;;;17.92;6.15;;;7.60;99.90;;;;;;5031140;28;20044;-84
2022/10/09 03:53:46;;;;;;;13.27;6.03;;;7.60;99.90;;;;;;5033059;28;20029;-83
2022/10/09 03:56:12;;;;;;;11.77;5.82;;;7.40;99.90;;;;;;5036672;28;20468;-81
2022/10/09 03:58:38;;;;;;;9.57;5.88;;;7.50;99.90;;;;;;5031750;28;20051;-85
2022/10/09 04:01:03;;;;;;;8.63;5.53;;;7.70;99.90;;;;;;5032431;28;20044;-84
2022/10/09 04:03:29;;;;;;;10.52;6.55;;;7.60;99.90;;;;;;5054844;28;20087;-85
2022/10/09 04:05:54;;;;;;;7.65;5.75;;;7.70;99.90;;;;;;5050424;28;20075;-81
2022/10/09 04:08:20;;;;;;;13.70;6.07;;;7.70;99.90;;;;;;5024488;28;20097;-84
2022/10/09 04:10:46;;;;;;;10.90;5.70;;;7.70;99.90;;;;;;5045515;28;20049;-77
2022/10/09 04:13:11;;;;;;;11.05;5.68;;;7.40;99.90;;;;;;5035546;28;20083;-79
2022/10/09 04:15:37;;;;;;;10.05;5.70;;;7.50;99.90;;;;;;5000048;28;20041;-82
2022/10/09 04:18:03;;;;;;;9.10;5.07;;;7.30;99.90;;;;;;5047836;28;20465;-83
2022/10/09 04:20:28;;;;;;;14.82;6.90;;;7.60;99.90;;;;;;5023022;28;20045;-78
2022/10/09 04:22:54;;;;;;;11.60;6.65;;;7.20;99.90;;;;;;5031778;28;20036;-84
2022/10/09 04:25:20;;;;;;;14.32;6.70;;;7.30;99.90;;;;;;5044511;28;20499;-84
2022/10/09 04:27:45;;;;;;;10.70;6.15;;;7.30;99.90;;;;;;5048939;28;20048;-77
2022/10/09 04:30:11;;;;;;;11.38;6.53;;;7.30;99.90;;;;;;5048392;28;20048;-83
2022/10/09 04:32:37;;;;;;;18.10;7.35;;;7.50;99.90;;;;;;5005447;28;20033;-85
2022/10/09 04:35:03;;;;;;;14.98;6.55;;;7.40;99.90;;;;;;5031733;28;20140;-84
2022/10/09 04:37:29;;;;;;;15.40;6.68;;;7.20;99.90;;;;;;5046331;28;20037;-83
2022/10/09 04:39:54;;;;;;;13.88;6.97;;;7.20;99.90;;;;;;5041136;28;20290;-85
2022/10/09 04:42:20;;;;;;;12.65;7.15;;;7.40;99.90;;;;;;5045808;28;20037;-84
2022/10/09 04:44:45;;;;;;;10.00;6.50;;;7.30;99.90;;;;;;5050306;28;20041;-77
2022/10/09 04:47:11;;;;;;;11.48;6.68;;;7.30;99.90;;;;;;5054767;28;20068;-85
2022/10/09 04:49:36;;;;;;;12.68;6.85;;;7.10;99.90;;;;;;5037059;28;20064;-85
2022/10/09 04:52:02;;;;;;;11.35;5.50;;;7.20;99.90;;;;;;5027810;28;20060;-83
2022/10/09 04:54:28;;;;;;;9.40;5.97;;;7.30;99.90;;;;;;5049428;28;20033;-85
2022/10/09 04:56:53;;;;;;;9.95;5.63;;;7.30;99.90;;;;;;5046263;28;20048;-79
2022/10/09 04:59:19;;;;;;;9.65;5.78;;;7.00;99.90;;;;;;5014689;28;20118;-84
2022/10/09 05:01:44;;;;;;;16.65;6.28;;;7.30;99.90;;;;;;5049888;28;20467;-84
2022/10/09 05:04:10;;;;;;;14.60;7.18;;;7.10;99.90;;;;;;5048793;28;20047;-82
2022/10/09 05:06:35;;;;;;;11.77;6.50;;;6.90;99.90;;;;;;5044257;28;20041;-83
2022/10/09 05:09:01;;;;;;;19.05;6.82;;;7.10;99.90;;;;;;5033263;28;20044;-83
2022/10/09 05:11:27;;;;;;;11.07;6.85;;;7.30;99.90;;;;;;5012110;28;20096;-83
2022/10/09 05:13:54;;;;;;;19.05;6.82;;;7.20;99.90;;;;;;5010881;28;20056;-84
2022/10/09 05:16:22;;;;;;;15.80;7.43;;;7.00;99.90;;;;;;5044184;28;20028;-84
2022/10/09 05:18:52;;;;;;;10.55;6.43;;;7.30;99.90;;;;;;5048805;28;20518;-85
2022/10/09 05:21:18;;;;;;;8.93;5.82;;;7.20;99.90;;;;;;5049764;28;20170;-84
2022/10/09 05:23:44;;;;;;;9.98;6.55;;;7.10;99.90;;;;;;5047654;28;20084;-82
2022/10/09 05:26:12;;;;;;;12.23;6.05;;;7.20;99.90;;;;;;5049441;28;20047;-82
2022/10/09 05:28:38;;;;;;;10.25;6.18;;;7.20;99.90;;;;;;5042635;28;20049;-84
2022/10/09 05:31:05;;;;;;;7.65;5.50;;;7.00;99.90;;;;;;5030820;28;20045;-80
2022/10/09 05:33:31;;;;;;;9.27;6.07;;;6.90;99.90;;;;;;5039607;28;20128;-83
2022/10/09 05:36:00;;;;;;;6.07;4.95;;;7.20;99.90;;;;;;5050453;28;20128;-84
2022/10/09 05:38:27;;;;;;;14.75;6.88;;;7.20;99.90;;;;;;5051180;28;20052;-83
2022/10/09 05:40:57;;;;;;;10.75;6.43;;;7.10;99.90;;;;;;5043163;28;20038;-81
2022/10/09 05:43:24;;;;;;;10.32;6.18;;;6.80;99.90;;;;;;5045595;28;20037;-81
2022/10/09 05:45:50;;;;;;;10.25;5.78;;;6.80;99.90;;;;;;5031520;28;20033;-83
2022/10/09 05:48:16;;;;;;;8.02;5.63;;;7.20;99.90;;;;;;5052964;28;20041;-77
2022/10/09 05:50:41;;;;;;;7.10;5.72;;;7.20;99.90;;;;;;5084510;28;20037;-83
2022/10/09 05:53:07;;;;;;;10.70;6.55;;;7.00;99.90;;;;;;5061905;28;20407;-82
2022/10/09 05:55:33;;;;;;;12.45;5.75;;;6.80;99.90;;;;;;5060700;28;20031;-82
2022/10/09 05:57:58;;;;;;;8.82;5.97;;;6.80;99.90;;;;;;5045718;28;20037;-82
2022/10/09 06:00:24;;;;;;;9.02;5.65;;;7.10;99.90;;;;;;5061078;28;20048;-80
2022/10/09 06:02:50;;;;;;;8.13;6.25;;;6.80;99.90;;;;;;5033609;28;20038;-83
2022/10/09 06:05:15;;;;;;;10.27;6.15;;;6.70;99.90;;;;;;5051205;28;20051;-77
2022/10/09 06:07:41;;;;;;;18.08;7.15;;;7.00;99.90;;;;;;5051167;28;20106;-83
2022/10/09 06:10:07;;;;;;;9.13;6.18;;;6.60;99.90;;;;;;5034972;28;20061;-84
2022/10/09 06:12:33;;;;;;;10.68;7.65;;;6.90;99.90;;;;;;5047399;28;20087;-80
2022/10/09 06:14:58;;;;;;;14.85;7.20;;;6.80;99.90;;;;;;5049873;28;20076;-81
2022/10/09 06:17:24;;;;;;;10.88;6.05;;;7.00;99.90;;;;;;5053183;28;20041;-83
2022/10/09 06:19:49;;;;;;;9.82;6.78;;;6.80;99.90;;;;;;5045340;28;20132;-80
2022/10/09 06:22:15;;;;;;;8.15;6.10;;;7.00;99.90;;;;;;5049296;28;20055;-77
2022/10/09 06:24:41;;;;;;;10.45;6.85;;;7.00;99.90;;;;;;5045589;28;20479;-84
2022/10/09 06:27:07;;;;;;;11.68;6.28;;;6.60;99.90;;;;;;5044492;28;20383;-80
2022/10/09 06:29:32;;;;;;;11.80;5.63;;;6.90;99.90;;;;;;5028257;28;20474;-80
2022/10/09 06:31:58;;;;;;;11.00;6.40;;;6.90;99.90;;;;;;5046690;28;20033;-83
2022/10/09 06:34:24;;;;;;;8.05;5.30;;;7.00;99.90;;;;;;5031456;28;20047;-81
2022/10/09 06:36:49;;;;;;;6.55;5.47;;;6.90;99.90;;;;;;5034541;28;20457;-83
2022/10/09 06:39:15;;;;;;;14.48;6.57;;;6.80;99.90;;;;;;5051029;28;20044;-81
2022/10/09 06:41:40;;;;;;;13.60;7.15;;;6.70;99.90;;;;;;5050746;28;20072;-77
2022/10/09 06:44:09;;;;;;;13.50;6.47;;;7.10;99.90;;;;;;5047856;28;20138;-83
2022/10/09 06:46:37;;;;;;;8.90;6.40;;;7.20;99.90;;;;;;5044196;28;20056;-84
2022/10/09 06:49:05;;;;;;;13.02;6.45;;;7.00;99.90;;;;;;5044499;28;20065;-78
2022/10/09 06:51:32;;;;;;;9.50;6.57;;;7.10;99.90;;;;;;5046613;28;20407;-81
2022/10/09 06:54:00;;;;;;;16.92;8.23;;;7.30;99.90;;;;;;5047436;28;20037;-83
2022/10/09 06:56:28;;;;;;;10.88;6.25;;;7.40;99.90;;;;;;5045721;28;20041;-80
2022/10/09 06:58:55;;;;;;;11.35;7.10;;;7.40;99.90;;;;;;5052676;28;20120;-83
2022/10/09 07:01:25;;;;;;;12.82;6.82;;;7.10;99.90;;;;;;5036730;28;20052;-82
2022/10/09 07:03:59;;;;;;;16.30;7.45;;;7.50;99.90;;;;;;5056667;28;20091;-80
2022/10/09 07:06:30;;;;;;;10.00;6.10;;;7.20;99.90;;;;;;5033624;28;20049;-84
2022/10/09 07:09:01;;;;;;;11.98;6.85;;;7.50;99.90;;;;;;5034750;28;20053;-84
2022/10/09 07:11:30;;;;;;;15.23;7.50;;;7.50;99.90;;;;;;5038220;28;20053;-81
2022/10/09 07:13:58;;;;;;;12.07;6.88;;;7.60;99.90;;;;;;5051141;28;20048;-82
2022/10/09 07:16:27;;;;;;;22.35;8.80;;;7.60;99.90;;;;;;5059257;28;20403;-82
2022/10/09 07:18:53;;;;;;;30.98;7.97;;;7.50;99.90;;;;;;5051226;28;20503;-78
2022/10/09 07:21:18;;;;;;;14.35;7.60;;;7.50;99.90;;;;;;5054797;28;20074;-83
2022/10/09 07:23:45;;;;;;;17.63;6.93;;;7.70;99.90;;;;;;5060421;28;20053;-84
2022/10/09 07:26:22;;;;;;;9.35;6.25;;;7.70;99.90;;;;;;5046932;28;20037;-85
2022/10/09 07:28:48;;;;;;;14.65;5.57;;;7.70;99.90;;;;;;5050527;28;20049;-84
2022/10/09 07:31:14;;;;;;;10.82;5.90;;;7.80;99.90;;;;;;5052292;28;20033;-80
2022/10/09 07:33:43;;;;;;;10.75;5.30;;;8.20;99.90;;;;;;5051221;28;20045;-84
2022/10/09 07:36:10;;;;;;;28.25;7.88;;;8.00;99.90;;;;;;5049079;28;20107;-82
2022/10/09 07:38:36;;;;;;;21.85;7.82;;;8.40;99.90;;;;;;5058948;28;20167;-84
2022/10/09 07:41:05;;;;;;;8.10;5.70;;;8.10;99.90;;;;;;5053821;28;20037;-86
2022/10/09 07:43:33;;;;;;;11.00;5.22;;;8.50;99.90;;;;;;5045755;28;20037;-83
2022/10/09 07:46:00;;;;;;;10.55;7.00;;;8.40;99.90;;;;;;5053632;28;20033;-81
2022/10/09 07:48:26;;;;;;;11.23;6.40;;;8.60;99.90;;;;;;5046905;28;20056;-82
2022/10/09 07:50:52;;;;;;;11.65;6.50;;;8.80;99.90;;;;;;5043206;28;20396;-82
2022/10/09 07:53:18;;;;;;;9.40;4.68;;;8.90;99.90;;;;;;5048578;28;20055;-80
2022/10/09 07:55:46;;;;;;;10.85;4.70;;;8.80;99.90;;;;;;5033784;28;20028;-83
2022/10/09 07:58:12;;;;;;;7.43;4.65;;;9.00;99.90;;;;;;5022411;28;20044;-81
2022/10/09 08:00:38;;;;;;;13.38;6.05;;;9.00;99.90;;;;;;5045133;28;20067;-82
2022/10/09 08:03:04;;;;;;;9.88;5.65;;;9.00;99.90;;;;;;5032035;28;20472;-82
2022/10/09 08:05:29;;;;;;;8.25;4.85;;;9.10;99.90;;;;;;5043632;28;20167;-80
2022/10/09 08:07:55;;;;;;;9.63;5.22;;;9.30;99.90;;;;;;5050722;28;20049;-82
2022/10/09 08:10:21;;;;;;;9.15;4.50;;;9.40;99.90;;;;;;5051367;28;20088;-84
2022/10/09 08:12:47;;;;;;;10.77;5.40;;;9.40;99.90;;;;;;5025552;28;20081;-82
2022/10/09 08:15:12;;;;;;;12.80;5.32;;;9.50;99.90;;;;;;5038589;28;20036;-82
2022/10/09 08:17:39;;;;;;;11.35;5.22;;;9.60;99.90;;;;;;5054276;28;20040;-83
2022/10/09 08:20:05;;;;;;;11.40;4.97;;;9.70;99.90;;;;;;5015876;28;20068;-80
2022/10/09 08:22:31;;;;;;;12.68;5.13;;;9.90;99.90;;;;;;5054499;28;20135;-81
2022/10/09 08:24:57;;;;;;;9.02;4.30;;;9.90;99.90;;;;;;5064112;28;20765;-82
2022/10/09 08:27:23;;;;;;;12.20;5.45;;;10.00;99.90;;;;;;5050223;28;20095;-83
2022/10/09 08:29:48;;;;;;;11.75;4.50;;;10.10;99.90;;;;;;5049257;28;20045;-83
2022/10/09 08:32:14;;;;;;;10.98;4.00;;;10.40;99.90;;;;;;5038750;28;20435;-80
2022/10/09 08:34:39;;;;;;;11.32;4.60;;;10.30;99.90;;;;;;5038244;28;20045;-78
2022/10/09 08:37:05;;;;;;;15.38;4.18;;;10.50;99.90;;;;;;5062910;28;20631;-80
2022/10/09 08:39:31;;;;;;;9.80;3.90;;;10.40;99.90;;;;;;5059767;28;20356;-81
2022/10/09 08:42:00;;;;;;;12.60;4.38;;;10.70;99.90;;;;;;5048993;28;20417;-78
2022/10/09 08:44:41;;;;;;;14.68;3.38;;;10.90;99.90;;;;;;5041979;28;20040;-80
2022/10/09 08:47:23;;;;;;;4.60;3.80;;;11.00;99.90;;;;;;5049996;28;20045;-83
2022/10/09 08:49:58;;;;;;;23.73;4.35;;;11.00;99.90;;;;;;5031395;28;20053;-82
2022/10/09 08:52:24;;;;;;;9.27;3.60;;;11.20;99.90;;;;;;5030995;28;20116;-80
2022/10/09 08:54:54;;;;;;;7.50;3.00;;;11.20;99.90;;;;;;5047826;28;20120;-82
2022/10/09 08:57:22;;;;;;;9.05;3.03;;;11.40;99.90;;;;;;5031031;28;20119;-83
2022/10/09 08:59:47;;;;;;;6.07;2.70;;;11.40;99.90;;;;;;5031549;28;20040;-82
2022/10/09 09:02:29;;;;;;;6.97;3.08;;;11.60;99.90;;;;;;5050509;28;20384;-82
2022/10/09 09:05:20;;;;;;;10.43;4.25;;;11.50;99.90;;;;;;5036965;28;20072;-83
2022/10/09 09:07:57;;;;;;;15.02;2.95;;;11.70;99.90;;;;;;5030243;28;20056;-79
2022/10/09 09:10:35;;;;;;;11.45;3.28;;;11.70;99.90;;;;;;5036550;28;20172;-80
2022/10/09 09:13:18;;;;;;;8.55;2.85;;;11.80;99.90;;;;;;5028938;28;20392;-79
2022/10/09 09:15:51;;;;;;;14.90;2.83;;;11.90;99.90;;;;;;5028764;28;20049;-80
2022/10/09 09:18:52;;;;;;;6.60;2.72;;;11.80;99.90;;;;;;5054424;28;20453;-78
2022/10/09 09:21:47;;;;;;;9.02;2.92;;;12.00;99.90;;;;;;5048574;28;20740;-78
2022/10/09 09:24:36;;;;;;;7.55;2.17;;;12.10;99.90;;;;;;5050898;28;20045;-72
2022/10/09 09:27:11;;;;;;;6.63;2.10;;;12.00;99.90;;;;;;5030271;28;20041;-77
2022/10/09 09:29:45;;;;;;;10.38;2.95;;;12.10;99.90;;;;;;5040145;28;20076;-76
2022/10/09 09:32:19;;;;;;;12.15;3.08;;;12.10;99.90;;;;;;5044859;28;20068;-76
2022/10/09 09:34:46;;;;;;;10.68;2.95;;;12.20;99.90;;;;;;5043752;28;20052;-76
2022/10/09 09:37:12;;;;;;;4.00;1.88;;;12.20;99.90;;;;;;5048560;28;20128;-76
2022/10/09 09:39:39;;;;;;;7.22;2.35;;;12.40;99.90;;;;;;5047061;28;20045;-77
2022/10/09 09:42:15;;;;;;;6.00;3.13;;;12.40;99.90;;;;;;5046642;28;20037;-75
2022/10/09 09:44:50;;;;;;;9.57;2.05;;;12.50;99.90;;;;;;5035137;28;20042;-77
2022/10/09 09:47:33;;;;;;;15.00;3.58;;;12.50;99.90;;;;;;5032137;28;20107;-76
2022/10/09 09:50:01;;;;;;;22.15;4.03;;;12.60;99.90;;;;;;5022062;28;20047;-76
2022/10/09 09:52:35;;;;;;;8.48;3.05;;;12.60;99.90;;;;;;5036010;28;20457;-78
2022/10/09 09:55:01;;;;;;;9.55;2.38;;;12.70;99.90;;;;;;5030560;28;20091;-79
2022/10/09 09:57:38;;;;;;;6.85;2.20;;;12.80;99.90;;;;;;5054739;28;20076;-77
2022/10/09 10:00:26;;;;;;;7.72;2.50;;;13.00;99.90;;;;;;5053305;28;20059;-77
2022/10/09 10:03:20;;;;;;;6.63;3.47;;;13.00;99.90;;;;;;5053396;28;20044;-75
2022/10/09 10:05:46;;;;;;;3.53;1.80;;;13.00;99.90;;;;;;5053227;28;20052;-76
2022/10/09 10:08:24;;;;;;;4.97;2.08;;;13.00;99.90;;;;;;5053531;28;20399;-77
2022/10/09 10:10:52;;;;;;;5.95;2.08;;;13.20;99.90;;;;;;5052585;28;20138;-76
2022/10/09 10:13:22;;;;;;;7.63;2.72;;;13.20;99.90;;;;;;5015239;28;20052;-79
2022/10/09 10:15:52;;;;;;;8.77;3.30;;;13.20;99.90;;;;;;5048906;28;20080;-79
2022/10/09 10:18:18;;;;;;;6.87;2.37;;;13.20;99.90;;;;;;5051969;28;20059;-77
2022/10/09 10:20:52;;;;;;;6.75;2.05;;;13.30;99.90;;;;;;5052275;28;20314;-77
2022/10/09 10:23:22;;;;;;;16.38;3.40;;;13.50;99.90;;;;;;5043187;28;21033;-75
2022/10/09 10:25:52;;;;;;;5.97;1.75;;;13.60;99.90;;;;;;5032015;28;20038;-77
2022/10/09 10:28:23;;;;;;;5.75;2.00;;;13.70;99.90;;;;;;5023945;28;20055;-75
2022/10/09 10:30:50;;;;;;;10.35;1.92;;;13.70;99.90;;;;;;5034897;28;20041;-76
2022/10/09 10:33:21;;;;;;;11.32;2.25;;;13.80;99.90;;;;;;5051877;28;20052;-75
2022/10/09 10:35:52;;;;;;;7.93;2.45;;;13.80;99.90;;;;;;5051736;28;20049;-76
2022/10/09 10:38:26;;;;;;;10.10;2.50;;;13.80;99.90;;;;;;5031922;28;20045;-76
2022/10/09 10:40:57;;;;;;;10.40;2.63;;;13.90;99.90;;;;;;5030357;28;20042;-76
2022/10/09 10:43:45;;;;;;;10.55;4.03;;;13.90;99.90;;;;;;5049255;28;20041;-76
2022/10/09 10:46:29;;;;;;;7.20;2.22;;;13.90;99.90;;;;;;5051745;28;20048;-75
2022/10/09 10:48:57;;;;;;;10.82;1.92;;;13.70;99.90;;;;;;5051279;28;20053;-75
2022/10/09 10:51:44;;;;;;;11.20;2.17;;;13.80;99.90;;;;;;5050907;28;20128;-76
2022/10/09 10:54:10;;;;;;;5.90;2.05;;;13.90;99.90;;;;;;5040643;28;20125;-76
2022/10/09 10:56:48;;;;;;;10.57;3.85;;;13.90;99.90;;;;;;5036481;28;20128;-76
2022/10/09 11:00:05;;;;;;;7.22;3.90;;;14.00;99.90;;;;;;5050810;28;20716;-76
2022/10/09 11:03:13;;;;;;;10.57;3.67;;;14.00;99.90;;;;;;5007487;28;20080;-77
2022/10/09 11:06:43;;;;;;;14.30;4.97;;;14.30;99.90;;;;;;4985930;28;20053;-75
2022/10/09 11:09:42;;;;;;;6.47;1.90;;;14.20;99.90;;;;;;4995832;28;20056;-76
2022/10/09 11:12:14;;;;;;;10.27;3.73;;;14.20;99.90;;;;;;4995353;28;20046;-76
2022/10/09 11:14:54;;;;;;;8.70;2.53;;;14.30;99.90;;;;;;5012323;28;20046;-76
2022/10/09 11:17:42;;;;;;;7.88;1.75;;;14.30;99.90;;;;;;5013075;28;20042;-77
2022/10/09 11:20:08;;;;;;;11.45;1.75;;;14.40;99.90;;;;;;5012930;28;20042;-76
2022/10/09 11:23:04;;;;;;;10.63;2.20;;;14.50;99.90;;;;;;5012004;28;20462;-77
2022/10/09 11:25:35;;;;;;;6.60;1.42;;;14.40;99.90;;;;;;5013085;28;20046;-77
2022/10/09 11:28:07;;;;;;;8.30;2.03;;;14.50;99.90;;;;;;5010492;28;20042;-78
2022/10/09 11:30:41;;;;;;;7.20;2.78;;;14.50;99.90;;;;;;5012516;28;20104;-79
2022/10/09 11:33:35;;;;;;;6.07;1.40;;;14.40;99.90;;;;;;5012658;28;20045;-78
2022/10/09 11:36:09;;;;;;;6.53;2.25;;;14.50;99.90;;;;;;5011741;28;20065;-76
2022/10/09 11:38:51;;;;;;;11.98;2.65;;;14.60;99.90;;;;;;5010596;28;20045;-77
2022/10/09 11:41:18;;;;;;;4.82;1.15;;;14.70;99.90;;;;;;4993083;28;20133;-77
2022/10/09 11:44:11;;;;;;;4.63;1.17;;;14.80;99.90;;;;;;5010600;28;20111;-79
2022/10/09 11:47:04;;;;;;;6.75;1.42;;;14.80;99.90;;;;;;5015974;28;20124;-78
2022/10/09 11:49:57;;;;;;;5.25;1.10;;;14.70;99.90;;;;;;5005036;28;20056;-77
2022/10/09 11:52:31;;;;;;;5.70;1.58;;;15.00;99.90;;;;;;5002643;28;20401;-77
2022/10/09 11:55:20;;;;;;;4.18;1.00;;;14.90;99.90;;;;;;5004287;28;20584;-77
2022/10/09 11:57:46;;;;;;;8.13;1.90;;;15.00;99.90;;;;;;5005003;28;20045;-76
2022/10/09 12:00:12;;;;;;;7.55;1.80;;;15.00;99.90;;;;;;5010342;28;20041;-78
2022/10/09 12:02:40;;;;;;;13.50;2.45;;;15.00;99.90;;;;;;5005308;28;20033;-78
2022/10/09 12:05:37;;;;;;;5.32;2.20;;;15.00;99.90;;;;;;5009706;28;20432;-80
2022/10/09 12:08:10;;;;;;;9.65;2.15;;;14.80;99.90;;;;;;4999259;28;20081;-77
2022/10/09 12:10:40;;;;;;;9.43;3.65;;;14.90;99.90;;;;;;5030925;28;20057;-77
2022/10/09 12:13:26;;;;;;;12.93;2.45;;;15.00;99.90;;;;;;5050119;28;20477;-79
2022/10/09 12:15:55;;;;;;;14.73;2.97;;;15.00;99.90;;;;;;5028679;28;20065;-76
2022/10/09 12:18:26;;;;;;;7.85;1.70;;;14.90;99.90;;;;;;5050418;28;20420;-76
2022/10/09 12:20:53;;;;;;;8.52;2.42;;;15.10;99.90;;;;;;5050719;28;20182;-76
2022/10/09 12:23:23;;;;;;;7.18;2.28;;;15.30;99.90;;;;;;5048464;28;20045;-77
2022/10/09 12:25:50;;;;;;;6.30;1.10;;;15.40;99.90;;;;;;5043154;28;20045;-77
2022/10/09 12:28:17;;;;;;;11.48;2.55;;;15.20;99.90;;;;;;5045962;28;20045;-77
2022/10/09 12:30:47;;;;;;;5.45;1.92;;;15.50;99.90;;;;;;5042301;28;20060;-77
2022/10/09 12:33:26;;;;;;;6.18;2.03;;;15.50;99.90;;;;;;5043412;28;20452;-75
2022/10/09 12:36:05;;;;;;;7.10;1.50;;;15.30;99.90;;;;;;5049643;28;20595;-76
2022/10/09 12:38:31;;;;;;;5.93;1.70;;;15.50;99.90;;;;;;5050441;28;20041;-76
2022/10/09 12:41:04;;;;;;;7.90;1.95;;;15.50;99.90;;;;;;5008203;28;20046;-77
2022/10/09 12:43:31;;;;;;;7.53;2.00;;;15.50;99.90;;;;;;5030237;28;20049;-77
2022/10/09 12:45:57;;;;;;;5.15;2.08;;;15.40;99.90;;;;;;5039220;28;20404;-76
2022/10/09 12:48:25;;;;;;;11.60;3.13;;;15.30;99.90;;;;;;5049341;28;20134;-77
2022/10/09 12:50:51;;;;;;;6.65;2.10;;;15.30;99.90;;;;;;5049758;28;20125;-77
2022/10/09 12:53:19;;;;;;;10.52;3.20;;;15.30;99.90;;;;;;5035489;28;20112;-76
2022/10/09 12:55:50;;;;;;;9.27;2.33;;;15.40;99.90;;;;;;5050040;28;20052;-76
2022/10/09 12:58:23;;;;;;;6.93;2.55;;;15.30;99.90;;;;;;5050688;28;20048;-77
2022/10/09 13:00:58;;;;;;;6.28;2.03;;;15.60;99.90;;;;;;5048819;28;20395;-78
2022/10/09 13:03:36;;;;;;;4.90;2.20;;;15.70;99.90;;;;;;5036233;28;20076;-78
2022/10/09 13:06:04;;;;;;;7.97;1.95;;;15.60;99.90;;;;;;5060542;28;20047;-76